Alabat, Philippines
Current Conditions -  °F | °C
As of 6:00 AM on Thursday 23 Oct 2014 (Local Time) from RPLL Reporting Station
Few Clouds Few Clouds  
Wind Chill: 79°   Ceiling: Unl
Heat Index: 83°   Visibility: 6mi
Dew Point: 77°   Wind: 1mph
Humidity: 94%   Direction: NA
Pressure: 29.85"   Gusts: NA
Location:  14.1°N, 122.02°E
Report Text: RPLL 222200Z VRB01KT 9999 FEW025 26/25 Q1011 NOSIG RMK A2985
Loading
Personal Weather Stations






























Interactive Weather Map
Tropical Storm Tracking
New forecast layout! Learn more

10-Day Weather Forecast

Advertisements
Track Severe Weather on mobile